sensor_id;sensor_type;location;lat;lon;timestamp;pressure;altitude;pressure_sealevel;temperature;humidity
46303;BME280;32029;51.358;5.628;2024-01-30T00:00:50;102345.41;;;11.19;98.62
46303;BME280;32029;51.358;5.628;2024-01-30T00:03:18;102327.28;;;11.08;98.19
46303;BME280;32029;51.358;5.628;2024-01-30T00:05:45;102338.69;;;11.13;98.49
46303;BME280;32029;51.358;5.628;2024-01-30T00:08:12;102342.13;;;11.15;98.41
46303;BME280;32029;51.358;5.628;2024-01-30T00:10:38;102348.91;;;11.21;98.30
46303;BME280;32029;51.358;5.628;2024-01-30T00:13:05;102345.97;;;11.22;98.38
46303;BME280;32029;51.358;5.628;2024-01-30T00:15:32;102323.22;;;11.12;98.23
46303;BME280;32029;51.358;5.628;2024-01-30T00:17:59;102325.81;;;11.14;98.36
46303;BME280;32029;51.358;5.628;2024-01-30T00:20:26;102340.78;;;11.19;98.20
46303;BME280;32029;51.358;5.628;2024-01-30T00:22:53;102326.09;;;11.11;97.86
46303;BME280;32029;51.358;5.628;2024-01-30T00:25:20;102342.84;;;11.17;98.05
46303;BME280;32029;51.358;5.628;2024-01-30T00:27:47;102345.91;;;11.14;98.51
46303;BME280;32029;51.358;5.628;2024-01-30T00:30:14;102337.25;;;11.09;98.37
46303;BME280;32029;51.358;5.628;2024-01-30T00:32:41;102339.28;;;11.07;98.59
46303;BME280;32029;51.358;5.628;2024-01-30T00:35:08;102334.22;;;11.12;98.40
46303;BME280;32029;51.358;5.628;2024-01-30T00:37:36;102322.09;;;11.05;98.54
46303;BME280;32029;51.358;5.628;2024-01-30T00:40:04;102314.75;;;10.96;98.35
46303;BME280;32029;51.358;5.628;2024-01-30T00:42:32;102325.00;;;11.03;98.63
46303;BME280;32029;51.358;5.628;2024-01-30T00:44:59;102330.03;;;11.08;98.33
46303;BME280;32029;51.358;5.628;2024-01-30T00:47:26;102328.47;;;11.06;98.55
46303;BME280;32029;51.358;5.628;2024-01-30T00:49:53;102315.19;;;11.01;98.34
46303;BME280;32029;51.358;5.628;2024-01-30T00:52:20;102334.50;;;11.09;98.27
46303;BME280;32029;51.358;5.628;2024-01-30T00:54:47;102327.28;;;11.08;98.41
46303;BME280;32029;51.358;5.628;2024-01-30T00:57:14;102326.41;;;11.08;98.27
46303;BME280;32029;51.358;5.628;2024-01-30T00:59:41;102322.97;;;11.06;98.07
46303;BME280;32029;51.358;5.628;2024-01-30T01:02:08;102328.47;;;11.06;98.56
46303;BME280;32029;51.358;5.628;2024-01-30T01:04:35;102333.41;;;11.02;98.41
46303;BME280;32029;51.358;5.628;2024-01-30T01:07:02;102330.19;;;11.07;98.40
46303;BME280;32029;51.358;5.628;2024-01-30T01:09:31;102327.59;;;11.05;98.18
46303;BME280;32029;51.358;5.628;2024-01-30T01:12:02;102319.34;;;11.05;98.20
46303;BME280;32029;51.358;5.628;2024-01-30T01:14:32;102322.25;;;11.03;98.59
46303;BME280;32029;51.358;5.628;2024-01-30T01:16:59;102314.00;;;11.03;98.50
46303;BME280;32029;51.358;5.628;2024-01-30T01:19:25;102298.91;;;10.90;98.32
46303;BME280;32029;51.358;5.628;2024-01-30T01:21:52;102314.56;;;11.07;98.58
46303;BME280;32029;51.358;5.628;2024-01-30T01:24:19;102321.81;;;11.08;98.37
46303;BME280;32029;51.358;5.628;2024-01-30T01:26:47;102292.66;;;10.97;98.32
46303;BME280;32029;51.358;5.628;2024-01-30T01:29:13;102321.63;;;11.10;98.23
46303;BME280;32029;51.358;5.628;2024-01-30T01:31:42;102312.66;;;11.08;98.37
46303;BME280;32029;51.358;5.628;2024-01-30T01:34:13;102313.94;;;11.13;98.12
46303;BME280;32029;51.358;5.628;2024-01-30T01:36:39;102306.75;;;11.12;97.94
46303;BME280;32029;51.358;5.628;2024-01-30T01:39:06;102297.09;;;11.08;97.89
46303;BME280;32029;51.358;5.628;2024-01-30T01:41:33;102301.94;;;11.14;97.29
46303;BME280;32029;51.358;5.628;2024-01-30T01:44:00;102306.41;;;11.15;97.29
46303;BME280;32029;51.358;5.628;2024-01-30T01:46:30;102297.47;;;11.13;97.43
46303;BME280;32029;51.358;5.628;2024-01-30T01:49:00;102300.53;;;11.10;97.28
46303;BME280;32029;51.358;5.628;2024-01-30T01:51:27;102306.41;;;11.15;97.32
46303;BME280;32029;51.358;5.628;2024-01-30T01:53:57;102304.44;;;11.08;97.31
46303;BME280;32029;51.358;5.628;2024-01-30T01:56:26;102310.66;;;11.10;97.15
46303;BME280;32029;51.358;5.628;2024-01-30T01:58:54;102298.00;;;10.99;97.09
46303;BME280;32029;51.358;5.628;2024-01-30T02:01:23;102289.63;;;11.00;97.53
46303;BME280;32029;51.358;5.628;2024-01-30T02:03:51;102293.53;;;10.98;97.33
46303;BME280;32029;51.358;5.628;2024-01-30T02:06:20;102299.75;;;11.00;97.59
46303;BME280;32029;51.358;5.628;2024-01-30T02:08:47;102285.59;;;10.95;97.79
46303;BME280;32029;51.358;5.628;2024-01-30T02:11:14;102295.41;;;10.97;97.77
46303;BME280;32029;51.358;5.628;2024-01-30T02:13:43;102294.69;;;10.95;97.98
46303;BME280;32029;51.358;5.628;2024-01-30T02:16:10;102284.47;;;10.88;98.21
46303;BME280;32029;51.358;5.628;2024-01-30T02:18:37;102284.34;;;10.89;98.28
46303;BME280;32029;51.358;5.628;2024-01-30T02:21:08;102274.69;;;10.85;98.24
46303;BME280;32029;51.358;5.628;2024-01-30T02:23:37;102283.47;;;10.89;98.42
46303;BME280;32029;51.358;5.628;2024-01-30T02:26:04;102283.13;;;10.92;98.56
46303;BME280;32029;51.358;5.628;2024-01-30T02:28:31;102267.44;;;10.84;98.61
46303;BME280;32029;51.358;5.628;2024-01-30T02:30:58;102287.47;;;10.94;98.53
46303;BME280;32029;51.358;5.628;2024-01-30T02:33:25;102290.22;;;10.94;98.51
46303;BME280;32029;51.358;5.628;2024-01-30T02:35:52;102286.31;;;10.97;98.18
46303;BME280;32029;51.358;5.628;2024-01-30T02:38:19;102269.56;;;10.90;97.85
46303;BME280;32029;51.358;5.628;2024-01-30T02:40:45;102281.81;;;10.96;97.96
46303;BME280;32029;51.358;5.628;2024-01-30T02:43:12;102277.34;;;10.95;98.15
46303;BME280;32029;51.358;5.628;2024-01-30T02:45:39;102265.25;;;10.88;97.83
46303;BME280;32029;51.358;5.628;2024-01-30T02:48:06;102232.38;;;10.78;97.63
46303;BME280;32029;51.358;5.628;2024-01-30T02:50:33;102278.47;;;11.02;97.90
46303;BME280;32029;51.358;5.628;2024-01-30T02:53:00;102271.25;;;11.01;97.97
46303;BME280;32029;51.358;5.628;2024-01-30T02:55:27;102269.53;;;11.00;98.18
46303;BME280;32029;51.358;5.628;2024-01-30T02:57:54;102273.69;;;11.04;98.12
46303;BME280;32029;51.358;5.628;2024-01-30T03:00:21;102269.53;;;11.00;97.97
46303;BME280;32029;51.358;5.628;2024-01-30T03:02:48;102265.19;;;10.97;97.76
46303;BME280;32029;51.358;5.628;2024-01-30T03:05:15;102273.53;;;11.06;97.98
46303;BME280;32029;51.358;5.628;2024-01-30T03:07:42;102258.84;;;10.97;98.10
46303;BME280;32029;51.358;5.628;2024-01-30T03:10:08;102283.19;;;11.10;97.72
46303;BME280;32029;51.358;5.628;2024-01-30T03:12:35;102273.34;;;11.07;97.85
46303;BME280;32029;51.358;5.628;2024-01-30T03:15:03;102271.81;;;11.04;97.80
46303;BME280;32029;51.358;5.628;2024-01-30T03:17:30;102275.09;;;11.08;97.97
46303;BME280;32029;51.358;5.628;2024-01-30T03:19:57;102258.53;;;11.00;97.85
46303;BME280;32029;51.358;5.628;2024-01-30T03:22:24;102260.25;;;11.01;97.85
46303;BME280;32029;51.358;5.628;2024-01-30T03:24:52;102248.16;;;10.94;98.25
46303;BME280;32029;51.358;5.628;2024-01-30T03:27:19;102244.94;;;10.98;98.24
46303;BME280;32029;51.358;5.628;2024-01-30T03:29:46;102248.72;;;10.97;98.17
46303;BME280;32029;51.358;5.628;2024-01-30T03:32:12;102251.94;;;10.93;98.56
46303;BME280;32029;51.358;5.628;2024-01-30T03:34:39;102255.06;;;10.98;98.39
46303;BME280;32029;51.358;5.628;2024-01-30T03:37:06;102241.81;;;10.93;98.71
46303;BME280;32029;51.358;5.628;2024-01-30T03:39:33;102253.19;;;10.98;98.45
46303;BME280;32029;51.358;5.628;2024-01-30T03:42:00;102236.06;;;10.87;98.75
46303;BME280;32029;51.358;5.628;2024-01-30T03:44:27;102253.66;;;10.94;98.95
46303;BME280;32029;51.358;5.628;2024-01-30T03:46:53;102255.38;;;10.95;98.97
46303;BME280;32029;51.358;5.628;2024-01-30T03:49:20;102248.84;;;10.96;98.85
46303;BME280;32029;51.358;5.628;2024-01-30T03:51:47;102229.72;;;10.86;98.74
46303;BME280;32029;51.358;5.628;2024-01-30T03:54:14;102256.22;;;10.95;99.18
46303;BME280;32029;51.358;5.628;2024-01-30T03:56:41;102253.91;;;11.00;98.93
46303;BME280;32029;51.358;5.628;2024-01-30T03:59:08;102255.94;;;10.98;99.09
46303;BME280;32029;51.358;5.628;2024-01-30T04:01:35;102245.09;;;10.97;98.80
46303;BME280;32029;51.358;5.628;2024-01-30T04:04:02;102242.38;;;10.97;99.28
46303;BME280;32029;51.358;5.628;2024-01-30T04:06:29;102244.63;;;11.01;99.10
46303;BME280;32029;51.358;5.628;2024-01-30T04:08:55;102253.13;;;11.08;99.04
46303;BME280;32029;51.358;5.628;2024-01-30T04:11:22;102253.81;;;11.10;99.16
46303;BME280;32029;51.358;5.628;2024-01-30T04:13:49;102244.00;;;11.08;98.81
46303;BME280;32029;51.358;5.628;2024-01-30T04:16:20;102247.38;;;11.01;99.41
46303;BME280;32029;51.358;5.628;2024-01-30T04:18:48;102257.03;;;11.06;98.99
46303;BME280;32029;51.358;5.628;2024-01-30T04:21:15;102251.06;;;11.10;99.03
46303;BME280;32029;51.358;5.628;2024-01-30T04:23:42;102242.13;;;11.08;99.11
46303;BME280;32029;51.358;5.628;2024-01-30T04:26:08;102227.69;;;11.06;98.95
46303;BME280;32029;51.358;5.628;2024-01-30T04:28:35;102234.91;;;11.07;99.01
46303;BME280;32029;51.358;5.628;2024-01-30T04:31:02;102251.16;;;11.18;99.12
46303;BME280;32029;51.358;5.628;2024-01-30T04:33:29;102234.97;;;11.15;99.04
46303;BME280;32029;51.358;5.628;2024-01-30T04:35:56;102238.44;;;11.17;98.91
46303;BME280;32029;51.358;5.628;2024-01-30T04:38:23;102248.81;;;11.23;98.89
46303;BME280;32029;51.358;5.628;2024-01-30T04:40:49;102238.69;;;11.24;99.08
46303;BME280;32029;51.358;5.628;2024-01-30T04:43:16;102248.81;;;11.23;99.14
46303;BME280;32029;51.358;5.628;2024-01-30T04:45:43;102233.31;;;11.22;99.16
46303;BME280;32029;51.358;5.628;2024-01-30T04:48:10;102230.09;;;11.27;99.43
46303;BME280;32029;51.358;5.628;2024-01-30T04:50:37;102233.41;;;11.31;99.19
46303;BME280;32029;51.358;5.628;2024-01-30T04:53:04;102217.56;;;11.24;99.55
46303;BME280;32029;51.358;5.628;2024-01-30T04:55:31;102220.94;;;11.36;99.64
46303;BME280;32029;51.358;5.628;2024-01-30T04:57:58;102221.63;;;11.38;99.65
46303;BME280;32029;51.358;5.628;2024-01-30T05:00:24;102212.50;;;11.38;100.00
46303;BME280;32029;51.358;5.628;2024-01-30T05:02:51;102205.13;;;11.38;100.00
46303;BME280;32029;51.358;5.628;2024-01-30T05:05:18;102198.41;;;11.33;100.00
46303;BME280;32029;51.358;5.628;2024-01-30T05:07:45;102221.00;;;11.44;100.00
46303;BME280;32029;51.358;5.628;2024-01-30T05:10:12;102215.63;;;11.43;100.00
46303;BME280;32029;51.358;5.628;2024-01-30T05:12:39;102218.25;;;11.44;100.00
46303;BME280;32029;51.358;5.628;2024-01-30T05:15:06;102210.22;;;11.51;100.00
46303;BME280;32029;51.358;5.628;2024-01-30T05:17:33;102208.66;;;11.48;100.00
46303;BME280;32029;51.358;5.628;2024-01-30T05:20:00;102203.94;;;11.59;100.00
46303;BME280;32029;51.358;5.628;2024-01-30T05:22:27;102215.13;;;11.65;100.00
46303;BME280;32029;51.358;5.628;2024-01-30T05:24:54;102199.84;;;11.63;100.00
46303;BME280;32029;51.358;5.628;2024-01-30T05:27:20;102198.63;;;11.65;100.00
46303;BME280;32029;51.358;5.628;2024-01-30T05:29:47;102204.13;;;11.65;100.00
46303;BME280;32029;51.358;5.628;2024-01-30T05:32:14;102209.69;;;11.73;100.00
46303;BME280;32029;51.358;5.628;2024-01-30T05:34:41;102213.84;;;11.77;100.00
46303;BME280;32029;51.358;5.628;2024-01-30T05:37:09;102215.25;;;11.82;100.00
46303;BME280;32029;51.358;5.628;2024-01-30T05:39:36;102219.75;;;11.83;100.00
46303;BME280;32029;51.358;5.628;2024-01-30T05:42:03;102205.13;;;11.82;100.00
46303;BME280;32029;51.358;5.628;2024-01-30T05:44:30;102203.47;;;11.89;100.00
46303;BME280;32029;51.358;5.628;2024-01-30T05:46:56;102214.19;;;12.00;100.00
46303;BME280;32029;51.358;5.628;2024-01-30T05:49:23;102203.50;;;11.97;100.00
46303;BME280;32029;51.358;5.628;2024-01-30T05:51:52;102217.34;;;12.06;100.00
46303;BME280;32029;51.358;5.628;2024-01-30T05:54:19;102204.94;;;12.01;100.00
46303;BME280;32029;51.358;5.628;2024-01-30T05:56:47;102219.09;;;12.15;100.00
46303;BME280;32029;51.358;5.628;2024-01-30T05:59:15;102202.22;;;12.10;100.00
46303;BME280;32029;51.358;5.628;2024-01-30T06:01:48;102204.78;;;12.11;100.00
46303;BME280;32029;51.358;5.628;2024-01-30T06:04:15;102208.63;;;12.18;100.00
46303;BME280;32029;51.358;5.628;2024-01-30T06:06:42;102208.31;;;12.21;100.00
46303;BME280;32029;51.358;5.628;2024-01-30T06:09:09;102217.59;;;12.29;100.00
46303;BME280;32029;51.358;5.628;2024-01-30T06:11:35;102209.69;;;12.25;100.00
46303;BME280;32029;51.358;5.628;2024-01-30T06:14:02;102214.53;;;12.32;100.00
46303;BME280;32029;51.358;5.628;2024-01-30T06:16:29;102214.91;;;12.37;100.00
46303;BME280;32029;51.358;5.628;2024-01-30T06:18:56;102194.41;;;12.31;100.00
46303;BME280;32029;51.358;5.628;2024-01-30T06:21:23;102207.34;;;12.39;100.00
46303;BME280;32029;51.358;5.628;2024-01-30T06:23:51;102200.47;;;12.43;100.00
46303;BME280;32029;51.358;5.628;2024-01-30T06:26:18;102207.53;;;12.45;100.00
46303;BME280;32029;51.358;5.628;2024-01-30T06:28:45;102211.31;;;12.44;100.00
46303;BME280;32029;51.358;5.628;2024-01-30T06:31:12;102208.06;;;12.49;100.00
46303;BME280;32029;51.358;5.628;2024-01-30T06:33:39;102218.41;;;12.55;100.00
46303;BME280;32029;51.358;5.628;2024-01-30T06:36:06;102220.81;;;12.58;99.94
46303;BME280;32029;51.358;5.628;2024-01-30T06:38:33;102212.88;;;12.55;99.85
46303;BME280;32029;51.358;5.628;2024-01-30T06:40:59;102214.28;;;12.59;99.57
46303;BME280;32029;51.358;5.628;2024-01-30T06:43:26;102205.34;;;12.57;99.39
46303;BME280;32029;51.358;5.628;2024-01-30T06:45:53;102226.34;;;12.66;99.46
46303;BME280;32029;51.358;5.628;2024-01-30T06:48:20;102232.56;;;12.68;99.58
46303;BME280;32029;51.358;5.628;2024-01-30T06:50:47;102228.59;;;12.71;99.33
46303;BME280;32029;51.358;5.628;2024-01-30T06:53:14;102215.66;;;12.63;99.03
46303;BME280;32029;51.358;5.628;2024-01-30T06:55:41;102214.28;;;12.59;98.60
46303;BME280;32029;51.358;5.628;2024-01-30T06:58:09;102233.25;;;12.70;98.76
46303;BME280;32029;51.358;5.628;2024-01-30T07:00:37;102245.34;;;12.78;98.48
46303;BME280;32029;51.358;5.628;2024-01-30T07:03:04;102244.97;;;12.72;98.96
46303;BME280;32029;51.358;5.628;2024-01-30T07:05:32;102241.00;;;12.75;98.56
46303;BME280;32029;51.358;5.628;2024-01-30T07:07:59;102230.50;;;12.70;98.56
46303;BME280;32029;51.358;5.628;2024-01-30T07:10:26;102239.47;;;12.72;98.44
46303;BME280;32029;51.358;5.628;2024-01-30T07:12:53;102249.13;;;12.77;98.62
46303;BME280;32029;51.358;5.628;2024-01-30T07:15:20;102264.44;;;12.79;98.27
46303;BME280;32029;51.358;5.628;2024-01-30T07:17:47;102268.75;;;12.82;98.71
46303;BME280;32029;51.358;5.628;2024-01-30T07:20:14;102263.22;;;12.73;98.21
46303;BME280;32029;51.358;5.628;2024-01-30T07:22:41;102280.13;;;12.87;98.17
46303;BME280;32029;51.358;5.628;2024-01-30T07:25:08;102253.56;;;12.69;98.17
46303;BME280;32029;51.358;5.628;2024-01-30T07:27:35;102281.16;;;12.86;98.48
46303;BME280;32029;51.358;5.628;2024-01-30T07:30:02;102283.59;;;12.89;98.25
46303;BME280;32029;51.358;5.628;2024-01-30T07:32:29;102285.50;;;12.88;98.19
46303;BME280;32029;51.358;5.628;2024-01-30T07:34:56;102264.94;;;12.74;98.10
46303;BME280;32029;51.358;5.628;2024-01-30T07:37:23;102282.88;;;12.87;98.23
46303;BME280;32029;51.358;5.628;2024-01-30T07:39:50;102278.91;;;12.81;98.55
46303;BME280;32029;51.358;5.628;2024-01-30T07:42:17;102302.66;;;12.82;98.60
46303;BME280;32029;51.358;5.628;2024-01-30T07:44:44;102298.00;;;12.83;98.36
46303;BME280;32029;51.358;5.628;2024-01-30T07:47:11;102296.66;;;12.87;98.11
46303;BME280;32029;51.358;5.628;2024-01-30T07:49:41;102294.59;;;12.89;98.33
46303;BME280;32029;51.358;5.628;2024-01-30T07:52:07;102293.91;;;12.87;98.53
46303;BME280;32029;51.358;5.628;2024-01-30T07:54:34;102301.50;;;12.93;98.11
46303;BME280;32029;51.358;5.628;2024-01-30T07:57:01;102297.69;;;12.86;98.04
46303;BME280;32029;51.358;5.628;2024-01-30T07:59:28;102303.41;;;12.92;98.13
46303;BME280;32029;51.358;5.628;2024-01-30T08:01:55;102289.94;;;12.81;98.04
46303;BME280;32029;51.358;5.628;2024-01-30T08:04:22;102310.84;;;13.00;97.82
46303;BME280;32029;51.358;5.628;2024-01-30T08:06:49;102302.19;;;12.95;97.54
46303;BME280;32029;51.358;5.628;2024-01-30T08:09:16;102319.44;;;13.05;97.82
46303;BME280;32029;51.358;5.628;2024-01-30T08:11:43;102314.63;;;12.99;97.67
46303;BME280;32029;51.358;5.628;2024-01-30T08:14:09;102329.97;;;13.10;97.68
46303;BME280;32029;51.358;5.628;2024-01-30T08:16:36;102316.88;;;13.04;97.58
46303;BME280;32029;51.358;5.628;2024-01-30T08:19:03;102327.75;;;13.13;97.57
46303;BME280;32029;51.358;5.628;2024-01-30T08:21:30;102331.88;;;13.17;97.45
46303;BME280;32029;51.358;5.628;2024-01-30T08:24:03;102326.38;;;13.17;97.12
46303;BME280;32029;51.358;5.628;2024-01-30T08:26:32;102333.47;;;13.20;97.07
46303;BME280;32029;51.358;5.628;2024-01-30T08:28:58;102322.94;;;13.15;96.91
46303;BME280;32029;51.358;5.628;2024-01-30T08:31:26;102321.19;;;13.14;96.97
46303;BME280;32029;51.358;5.628;2024-01-30T08:33:53;102337.44;;;13.26;96.95
46303;BME280;32029;51.358;5.628;2024-01-30T08:36:20;102320.88;;;13.17;96.95
46303;BME280;32029;51.358;5.628;2024-01-30T08:38:46;102333.31;;;13.30;96.80
46303;BME280;32029;51.358;5.628;2024-01-30T08:41:13;102333.19;;;13.31;96.18
46303;BME280;32029;51.358;5.628;2024-01-30T08:43:40;102337.97;;;13.29;96.81
46303;BME280;32029;51.358;5.628;2024-01-30T08:46:07;102315.03;;;13.20;96.76
46303;BME280;32029;51.358;5.628;2024-01-30T08:48:35;102326.28;;;13.27;96.76
46303;BME280;32029;51.358;5.628;2024-01-30T08:51:04;102328.84;;;13.29;97.01
46303;BME280;32029;51.358;5.628;2024-01-30T08:53:35;102323.19;;;13.30;97.04
46303;BME280;32029;51.358;5.628;2024-01-30T08:56:03;102328.19;;;13.35;96.96
46303;BME280;32029;51.358;5.628;2024-01-30T08:58:30;102312.16;;;13.30;97.19
46303;BME280;32029;51.358;5.628;2024-01-30T09:00:57;102319.22;;;13.41;96.71
46303;BME280;32029;51.358;5.628;2024-01-30T09:03:24;102313.72;;;13.41;96.56
46303;BME280;32029;51.358;5.628;2024-01-30T09:05:51;102324.94;;;13.47;96.69
46303;BME280;32029;51.358;5.628;2024-01-30T09:08:17;102321.66;;;13.52;96.78
46303;BME280;32029;51.358;5.628;2024-01-30T09:10:44;102337.53;;;13.58;96.74
46303;BME280;32029;51.358;5.628;2024-01-30T09:13:12;102333.72;;;13.59;96.46
46303;BME280;32029;51.358;5.628;2024-01-30T09:15:41;102325.78;;;13.56;96.38
46303;BME280;32029;51.358;5.628;2024-01-30T09:18:09;102344.09;;;13.65;96.47
46303;BME280;32029;51.358;5.628;2024-01-30T09:20:54;102340.28;;;13.66;96.91
46303;BME280;32029;51.358;5.628;2024-01-30T09:23:23;102339.97;;;13.69;96.54
46303;BME280;32029;51.358;5.628;2024-01-30T09:25:49;102338.72;;;13.80;96.52
46303;BME280;32029;51.358;5.628;2024-01-30T09:28:17;102336.16;;;13.87;96.36
46303;BME280;32029;51.358;5.628;2024-01-30T09:30:44;102338.91;;;13.95;95.78
46303;BME280;32029;51.358;5.628;2024-01-30T09:33:11;102334.25;;;13.95;95.48
46303;BME280;32029;51.358;5.628;2024-01-30T09:35:38;102343.75;;;14.01;94.95
46303;BME280;32029;51.358;5.628;2024-01-30T09:38:04;102357.56;;;13.93;95.76
46303;BME280;32029;51.358;5.628;2024-01-30T09:40:31;102359.94;;;13.96;95.45
46303;BME280;32029;51.358;5.628;2024-01-30T09:42:58;102353.22;;;13.90;95.87
46303;BME280;32029;51.358;5.628;2024-01-30T09:45:29;102354.78;;;13.93;95.87
46303;BME280;32029;51.358;5.628;2024-01-30T09:47:59;102352.03;;;13.93;96.68
46303;BME280;32029;51.358;5.628;2024-01-30T09:50:26;102348.22;;;13.94;95.84
46303;BME280;32029;51.358;5.628;2024-01-30T09:55:30;102195.44;;;13.05;96.43
46303;BME280;32029;51.358;5.628;2024-01-30T09:57:57;102370.63;;;14.07;96.55
46303;BME280;32029;51.358;5.628;2024-01-30T10:00:24;102367.88;;;14.07;96.63
46303;BME280;32029;51.358;5.628;2024-01-30T10:02:53;102365.13;;;14.07;96.83
46303;BME280;32029;51.358;5.628;2024-01-30T10:05:26;102368.25;;;14.12;96.48
46303;BME280;32029;51.358;5.628;2024-01-30T10:07:57;102369.09;;;14.13;96.78
46303;BME280;32029;51.358;5.628;2024-01-30T10:10:24;102371.34;;;14.17;96.30
46303;BME280;32029;51.358;5.628;2024-01-30T10:12:50;102373.75;;;14.20;96.53
46303;BME280;32029;51.358;5.628;2024-01-30T10:15:18;102373.38;;;14.23;96.83
46303;BME280;32029;51.358;5.628;2024-01-30T10:17:45;102367.19;;;14.30;96.32
46303;BME280;32029;51.358;5.628;2024-01-30T10:20:13;102385.81;;;14.36;96.14
46303;BME280;32029;51.358;5.628;2024-01-30T10:22:40;102373.53;;;14.38;95.83
46303;BME280;32029;51.358;5.628;2024-01-30T10:25:11;102380.66;;;14.49;96.26
46303;BME280;32029;51.358;5.628;2024-01-30T10:27:39;102385.47;;;14.55;96.10
46303;BME280;32029;51.358;5.628;2024-01-30T10:30:07;102365.06;;;14.64;95.64
46303;BME280;32029;51.358;5.628;2024-01-30T10:32:34;102381.94;;;14.78;94.30
46303;BME280;32029;51.358;5.628;2024-01-30T10:35:01;102362.97;;;14.75;94.75
46303;BME280;32029;51.358;5.628;2024-01-30T10:37:30;102369.53;;;14.74;94.48
46303;BME280;32029;51.358;5.628;2024-01-30T10:40:02;102356.81;;;14.56;94.63
46303;BME280;32029;51.358;5.628;2024-01-30T10:42:36;102371.25;;;14.66;95.17
46303;BME280;32029;51.358;5.628;2024-01-30T10:47:35;102384.06;;;14.67;94.89
46303;BME280;32029;51.358;5.628;2024-01-30T10:50:07;102390.97;;;14.72;94.64
46303;BME280;32029;51.358;5.628;2024-01-30T10:52:36;102389.38;;;14.77;94.83
46303;BME280;32029;51.358;5.628;2024-01-30T10:55:04;102394.03;;;14.77;93.99
46303;BME280;32029;51.358;5.628;2024-01-30T10:57:34;102371.66;;;14.63;94.89
46303;BME280;32029;51.358;5.628;2024-01-30T11:00:05;102390.22;;;14.78;95.22
46303;BME280;32029;51.358;5.628;2024-01-30T11:02:41;102375.56;;;14.77;94.43
46303;BME280;32029;51.358;5.628;2024-01-30T11:05:08;102378.84;;;14.73;94.05
46303;BME280;32029;51.358;5.628;2024-01-30T11:07:35;102381.81;;;14.71;94.81
46303;BME280;32029;51.358;5.628;2024-01-30T11:10:03;102389.59;;;14.67;95.06
46303;BME280;32029;51.358;5.628;2024-01-30T11:12:32;102398.19;;;14.73;94.92
46303;BME280;32029;51.358;5.628;2024-01-30T11:15:12;102395.94;;;14.76;95.04
46303;BME280;32029;51.358;5.628;2024-01-30T11:20:12;102392.69;;;14.73;94.91
46303;BME280;32029;51.358;5.628;2024-01-30T11:22:44;102374.06;;;14.58;94.66
46303;BME280;32029;51.358;5.628;2024-01-30T11:25:15;102397.66;;;14.77;95.78
46303;BME280;32029;51.358;5.628;2024-01-30T11:27:43;102399.72;;;14.83;94.89
46303;BME280;32029;51.358;5.628;2024-01-30T11:30:10;102397.00;;;14.75;94.49
46303;BME280;32029;51.358;5.628;2024-01-30T11:32:37;102406.81;;;14.78;94.93
46303;BME280;32029;51.358;5.628;2024-01-30T11:35:05;102386.47;;;14.70;95.11
46303;BME280;32029;51.358;5.628;2024-01-30T11:37:36;102394.78;;;14.70;95.35
46303;BME280;32029;51.358;5.628;2024-01-30T11:40:04;102384.06;;;14.67;95.38
46303;BME280;32029;51.358;5.628;2024-01-30T11:42:31;102385.44;;;14.72;95.28
46303;BME280;32029;51.358;5.628;2024-01-30T11:45:00;102384.38;;;14.73;95.44
46303;BME280;32029;51.358;5.628;2024-01-30T11:47:30;102399.22;;;14.80;94.86
46303;BME280;32029;51.358;5.628;2024-01-30T11:49:57;102376.78;;;14.75;94.11
46303;BME280;32029;51.358;5.628;2024-01-30T11:52:24;102389.59;;;14.67;95.04
46303;BME280;32029;51.358;5.628;2024-01-30T11:54:52;102389.59;;;14.67;94.95
46303;BME280;32029;51.358;5.628;2024-01-30T11:57:19;102382.19;;;14.60;94.88
46303;BME280;32029;51.358;5.628;2024-01-30T11:59:46;102385.09;;;14.58;95.09
46303;BME280;32029;51.358;5.628;2024-01-30T12:02:16;102372.69;;;14.54;95.87
46303;BME280;32029;51.358;5.628;2024-01-30T12:04:44;102383.38;;;14.57;95.82
46303;BME280;32029;51.358;5.628;2024-01-30T12:07:11;102386.16;;;14.57;95.23
46303;BME280;32029;51.358;5.628;2024-01-30T12:09:42;102377.50;;;14.60;94.47
46303;BME280;32029;51.358;5.628;2024-01-30T12:12:09;102386.50;;;14.54;94.41
46303;BME280;32029;51.358;5.628;2024-01-30T12:14:41;102395.81;;;14.61;93.10
46303;BME280;32029;51.358;5.628;2024-01-30T12:17:08;102401.69;;;14.58;93.65
46303;BME280;32029;51.358;5.628;2024-01-30T12:19:36;102396.16;;;14.58;90.34
46303;BME280;32029;51.358;5.628;2024-01-30T12:22:03;102376.81;;;14.42;90.26
46303;BME280;32029;51.358;5.628;2024-01-30T12:24:30;102408.78;;;14.53;89.87
46303;BME280;32029;51.358;5.628;2024-01-30T12:26:58;102421.34;;;14.47;88.22
46303;BME280;32029;51.358;5.628;2024-01-30T12:29:25;102382.88;;;14.29;87.21
46303;BME280;32029;51.358;5.628;2024-01-30T12:31:53;102409.78;;;14.27;88.13
46303;BME280;32029;51.358;5.628;2024-01-30T12:34:21;102400.66;;;14.18;87.05
46303;BME280;32029;51.358;5.628;2024-01-30T12:36:49;102431.72;;;14.20;86.67
46303;BME280;32029;51.358;5.628;2024-01-30T12:39:17;102417.22;;;14.18;86.45
46303;BME280;32029;51.358;5.628;2024-01-30T12:41:46;102418.94;;;14.11;86.56
46303;BME280;32029;51.358;5.628;2024-01-30T12:44:14;102412.03;;;14.07;88.16
46303;BME280;32029;51.358;5.628;2024-01-30T12:46:42;102419.47;;;14.15;87.98
46303;BME280;32029;51.358;5.628;2024-01-30T12:49:09;102426.88;;;14.22;86.84
46303;BME280;32029;51.358;5.628;2024-01-30T12:51:36;102434.81;;;14.26;85.07
46303;BME280;32029;51.358;5.628;2024-01-30T12:54:06;102437.41;;;14.27;84.65
46303;BME280;32029;51.358;5.628;2024-01-30T12:56:34;102431.03;;;14.27;83.33